sensor_id;sensor_type;location;lat;lon;timestamp;pressure;altitude;pressure_sealevel;temperature;humidity
21664;BME280;10993;52.510;13.456;2023-06-04T00:04:42;56325.94;;;-146.93;32.10
21664;BME280;10993;52.510;13.456;2023-06-04T00:09:42;56327.97;;;-146.93;32.44
21664;BME280;10993;52.510;13.456;2023-06-04T00:14:44;56360.34;;;-146.93;32.80
21664;BME280;10993;52.510;13.456;2023-06-04T00:19:46;56362.38;;;-146.93;32.93
21664;BME280;10993;52.510;13.456;2023-06-04T00:24:46;56336.06;;;-146.93;33.58
21664;BME280;10993;52.510;13.456;2023-06-04T00:29:46;56358.31;;;-146.93;33.99
21664;BME280;10993;52.510;13.456;2023-06-04T00:34:53;57625.94;;;-146.93;34.05
21664;BME280;10993;52.510;13.456;2023-06-04T00:39:53;56358.31;;;-146.93;34.58
21664;BME280;10993;52.510;13.456;2023-06-04T00:44:54;56329.97;;;-146.93;34.98
21664;BME280;10993;52.510;13.456;2023-06-04T00:49:59;56293.53;;;-146.93;34.91
21664;BME280;10993;52.510;13.456;2023-06-04T00:55:00;56354.28;;;-146.93;35.29
21664;BME280;10993;52.510;13.456;2023-06-04T01:00:00;56329.97;;;-146.93;35.89
21664;BME280;10993;52.510;13.456;2023-06-04T01:05:10;56303.66;;;-146.93;35.87
21664;BME280;10993;52.510;13.456;2023-06-04T01:10:12;56299.63;;;-146.93;35.73
21664;BME280;10993;52.510;13.456;2023-06-04T01:15:12;56301.63;;;-146.93;36.04
21664;BME280;10993;52.510;13.456;2023-06-04T01:20:25;56325.94;;;-146.93;36.14
21664;BME280;10993;52.510;13.456;2023-06-04T01:25:31;56329.97;;;-146.93;36.56
21664;BME280;10993;52.510;13.456;2023-06-04T01:30:34;56309.75;;;-146.93;36.62
21664;BME280;10993;52.510;13.456;2023-06-04T01:35:36;56309.75;;;-146.93;37.15
21664;BME280;10993;52.510;13.456;2023-06-04T01:40:37;56325.94;;;-146.93;37.07
21664;BME280;10993;52.510;13.456;2023-06-04T01:45:37;56240.91;;;-146.93;37.56
21664;BME280;10993;52.510;13.456;2023-06-04T01:50:39;56301.63;;;-146.93;37.89
21664;BME280;10993;52.510;13.456;2023-06-04T01:55:39;56334.03;;;-146.93;37.90
21664;BME280;10993;52.510;13.456;2023-06-04T02:00:39;56309.75;;;-146.93;37.99
21664;BME280;10993;52.510;13.456;2023-06-04T02:05:42;56291.53;;;-146.93;38.31
21664;BME280;10993;52.510;13.456;2023-06-04T02:10:45;56342.13;;;-146.93;38.63
21664;BME280;10993;52.510;13.456;2023-06-04T02:15:46;56273.28;;;-146.93;38.69
21664;BME280;10993;52.510;13.456;2023-06-04T02:20:49;56285.44;;;-146.93;38.50
21664;BME280;10993;52.510;13.456;2023-06-04T02:25:50;56218.63;;;-146.93;38.79
21664;BME280;10993;52.510;13.456;2023-06-04T02:30:50;56338.09;;;-146.93;39.45
21664;BME280;10993;52.510;13.456;2023-06-04T02:35:52;56251.03;;;-146.93;39.50
21664;BME280;10993;52.510;13.456;2023-06-04T02:40:52;56220.66;;;-146.93;39.75
21664;BME280;10993;52.510;13.456;2023-06-04T02:45:53;56269.25;;;-146.93;39.87
21664;BME280;10993;52.510;13.456;2023-06-04T02:50:54;56198.38;;;-146.93;39.63
21664;BME280;10993;52.510;13.456;2023-06-04T02:55:55;56269.25;;;-146.93;39.74
21664;BME280;10993;52.510;13.456;2023-06-04T03:00:55;56313.78;;;-146.93;39.44
21664;BME280;10993;52.510;13.456;2023-06-04T03:05:57;56291.53;;;-146.93;39.75
21664;BME280;10993;52.510;13.456;2023-06-04T03:10:59;56321.88;;;-146.93;39.67
21664;BME280;10993;52.510;13.456;2023-06-04T03:16:00;56291.53;;;-146.93;39.21
21664;BME280;10993;52.510;13.456;2023-06-04T03:21:02;56251.03;;;-146.93;39.18
21664;BME280;10993;52.510;13.456;2023-06-04T03:26:03;56321.88;;;-146.93;39.27
21664;BME280;10993;52.510;13.456;2023-06-04T03:31:04;56315.81;;;-146.93;39.00
21664;BME280;10993;52.510;13.456;2023-06-04T03:36:06;56329.97;;;-146.93;38.56
21664;BME280;10993;52.510;13.456;2023-06-04T03:41:06;56372.50;;;-146.93;37.25
21664;BME280;10993;52.510;13.456;2023-06-04T03:46:06;56568.88;;;-146.93;33.79
21664;BME280;10993;52.510;13.456;2023-06-04T03:51:08;56826.03;;;-146.93;30.93
21664;BME280;10993;52.510;13.456;2023-06-04T03:56:08;57097.38;;;-146.93;29.08
21664;BME280;10993;52.510;13.456;2023-06-04T04:01:09;57397.09;;;-146.93;27.53
21664;BME280;10993;52.510;13.456;2023-06-04T04:06:11;57401.16;;;-146.93;26.79
21664;BME280;10993;52.510;13.456;2023-06-04T04:11:12;57727.22;;;-146.93;25.95
21664;BME280;10993;52.510;13.456;2023-06-04T04:16:12;58010.78;;;-146.93;24.57
21664;BME280;10993;52.510;13.456;2023-06-04T04:21:14;58484.78;;;-146.93;23.59
21664;BME280;10993;52.510;13.456;2023-06-04T04:26:14;59206.06;;;-146.93;22.46
21664;BME280;10993;52.510;13.456;2023-06-04T04:31:16;59824.13;;;-146.93;21.63
21664;BME280;10993;52.510;13.456;2023-06-04T04:36:18;60211.25;;;-146.93;20.71
21664;BME280;10993;52.510;13.456;2023-06-04T04:41:19;60476.78;;;-146.93;20.39
21664;BME280;10993;52.510;13.456;2023-06-04T04:46:21;60168.69;;;-146.93;20.34
21664;BME280;10993;52.510;13.456;2023-06-04T04:51:22;60235.56;;;-146.93;19.83
21664;BME280;10993;52.510;13.456;2023-06-04T04:56:23;60576.09;;;-146.93;19.93
21664;BME280;10993;52.510;13.456;2023-06-04T05:01:23;61131.56;;;-146.93;19.50
21664;BME280;10993;52.510;13.456;2023-06-04T05:06:26;61297.81;;;-146.93;19.39
21664;BME280;10993;52.510;13.456;2023-06-04T05:11:27;61691.19;;;-146.93;19.13
21664;BME280;10993;52.510;13.456;2023-06-04T05:16:27;61837.19;;;-146.93;18.89
21664;BME280;10993;52.510;13.456;2023-06-04T05:21:29;62145.44;;;-146.93;18.60
21664;BME280;10993;52.510;13.456;2023-06-04T05:26:29;60677.47;;;-146.93;19.45
21664;BME280;10993;52.510;13.456;2023-06-04T05:31:30;60006.53;;;-146.93;20.13
21664;BME280;10993;52.510;13.456;2023-06-04T05:36:34;59907.22;;;-146.93;20.17
21664;BME280;10993;52.510;13.456;2023-06-04T05:41:35;60300.44;;;-146.93;19.98
21664;BME280;10993;52.510;13.456;2023-06-04T05:46:36;60261.91;;;-146.93;19.97
21664;BME280;10993;52.510;13.456;2023-06-04T05:51:38;62135.28;;;-146.93;18.59
21664;BME280;10993;52.510;13.456;2023-06-04T05:56:38;61731.75;;;-146.93;18.52
21664;BME280;10993;52.510;13.456;2023-06-04T06:01:39;61975.09;;;-146.93;18.18
21664;BME280;10993;52.510;13.456;2023-06-04T06:06:40;60699.75;;;-146.93;19.16
21664;BME280;10993;52.510;13.456;2023-06-04T06:11:43;62757.94;;;-146.93;17.70
21664;BME280;10993;52.510;13.456;2023-06-04T06:16:44;64320.16;;;-146.93;16.88
21664;BME280;10993;52.510;13.456;2023-06-04T06:21:46;63926.50;;;-146.93;17.04
21664;BME280;10993;52.510;13.456;2023-06-04T06:26:46;64352.63;;;-146.93;16.49
21664;BME280;10993;52.510;13.456;2023-06-04T06:31:47;65050.81;;;-146.93;16.54
21664;BME280;10993;52.510;13.456;2023-06-04T06:36:49;64661.13;;;-146.93;16.76
21664;BME280;10993;52.510;13.456;2023-06-04T06:41:49;63719.53;;;-146.93;16.63
21664;BME280;10993;52.510;13.456;2023-06-04T06:46:50;64713.88;;;-146.93;16.27
21664;BME280;10993;52.510;13.456;2023-06-04T06:51:51;64719.97;;;-146.93;16.14
21664;BME280;10993;52.510;13.456;2023-06-04T06:56:52;64831.59;;;-146.93;16.76
21664;BME280;10993;52.510;13.456;2023-06-04T07:01:52;66419.13;;;-146.93;16.00
21664;BME280;10993;52.510;13.456;2023-06-04T07:06:54;67477.22;;;-146.93;15.42
21664;BME280;10993;52.510;13.456;2023-06-04T07:11:55;64604.28;;;-146.93;15.74
21664;BME280;10993;52.510;13.456;2023-06-04T07:16:55;64646.91;;;-146.93;15.91
21664;BME280;10993;52.510;13.456;2023-06-04T07:21:57;66419.13;;;-146.93;15.55
21664;BME280;10993;52.510;13.456;2023-06-04T07:26:57;67276.13;;;-146.93;15.33
21664;BME280;10993;52.510;13.456;2023-06-04T07:31:57;64480.50;;;-146.93;15.93
21664;BME280;10993;52.510;13.456;2023-06-04T07:36:59;64969.63;;;-146.93;15.61
21664;BME280;10993;52.510;13.456;2023-06-04T07:42:00;67751.44;;;-146.93;15.10
21664;BME280;10993;52.510;13.456;2023-06-04T07:47:00;67588.94;;;-146.93;14.76
21664;BME280;10993;52.510;13.456;2023-06-04T07:52:02;67647.84;;;-146.93;15.06
21664;BME280;10993;52.510;13.456;2023-06-04T07:57:03;67284.25;;;-146.93;14.89
21664;BME280;10993;52.510;13.456;2023-06-04T08:02:03;67081.16;;;-146.93;15.14
21664;BME280;10993;52.510;13.456;2023-06-04T08:07:05;64060.44;;;-146.93;15.59
21664;BME280;10993;52.510;13.456;2023-06-04T08:12:06;65548.13;;;-146.93;14.90
21664;BME280;10993;52.510;13.456;2023-06-04T08:17:06;67109.59;;;-146.93;14.99
21664;BME280;10993;52.510;13.456;2023-06-04T08:22:08;65822.19;;;-146.93;15.27
21664;BME280;10993;52.510;13.456;2023-06-04T08:27:11;66790.75;;;-146.93;15.12
21664;BME280;10993;52.510;13.456;2023-06-04T08:32:11;64295.81;;;-146.93;15.68
21664;BME280;10993;52.510;13.456;2023-06-04T08:37:13;63863.59;;;-146.93;15.77
21664;BME280;10993;52.510;13.456;2023-06-04T08:42:20;62851.25;;;-146.93;16.55
21664;BME280;10993;52.510;13.456;2023-06-04T08:47:24;64553.56;;;-146.93;15.51
21664;BME280;10993;52.510;13.456;2023-06-04T08:52:26;62766.06;;;-146.93;15.85
21664;BME280;10993;52.510;13.456;2023-06-04T08:57:27;62334.03;;;-146.93;16.29
21664;BME280;10993;52.510;13.456;2023-06-04T09:02:30;63695.19;;;-146.93;15.65
21664;BME280;10993;52.510;13.456;2023-06-04T09:07:35;65531.88;;;-146.93;15.44
21664;BME280;10993;52.510;13.456;2023-06-04T09:12:37;66731.84;;;-146.93;15.05
21664;BME280;10993;52.510;13.456;2023-06-04T09:17:40;65073.13;;;-146.93;15.21
21664;BME280;10993;52.510;13.456;2023-06-04T09:22:42;62530.78;;;-146.93;16.26
21664;BME280;10993;52.510;13.456;2023-06-04T09:27:42;62518.63;;;-146.93;15.94
21664;BME280;10993;52.510;13.456;2023-06-04T09:32:42;63762.16;;;-146.93;15.56
21664;BME280;10993;52.510;13.456;2023-06-04T09:37:53;63543.03;;;-146.93;15.63
21664;BME280;10993;52.510;13.456;2023-06-04T09:42:53;63297.53;;;-146.93;16.11
21664;BME280;10993;52.510;13.456;2023-06-04T09:47:54;63689.13;;;-146.93;15.85
21664;BME280;10993;52.510;13.456;2023-06-04T09:52:56;62238.72;;;-146.93;16.26
21664;BME280;10993;52.510;13.456;2023-06-04T09:57:58;62279.28;;;-146.93;16.63
21664;BME280;10993;52.510;13.456;2023-06-04T10:03:01;62950.66;;;-146.93;16.21
21664;BME280;10993;52.510;13.456;2023-06-04T10:08:04;61733.78;;;-146.93;16.55
21664;BME280;10993;52.510;13.456;2023-06-04T10:13:14;60561.91;;;-146.93;17.51
21664;BME280;10993;52.510;13.456;2023-06-04T10:18:18;60679.50;;;-146.93;17.41
21664;BME280;10993;52.510;13.456;2023-06-04T10:23:20;60945.06;;;-146.93;17.15
21664;BME280;10993;52.510;13.456;2023-06-04T10:28:22;61287.69;;;-146.93;17.02
21664;BME280;10993;52.510;13.456;2023-06-04T10:33:23;59891.03;;;-146.93;18.00
21664;BME280;10993;52.510;13.456;2023-06-04T10:38:28;61719.56;;;-146.93;17.21
21664;BME280;10993;52.510;13.456;2023-06-04T10:43:30;63607.97;;;-146.93;15.95
21664;BME280;10993;52.510;13.456;2023-06-04T10:48:31;63885.94;;;-146.93;15.56
21664;BME280;10993;52.510;13.456;2023-06-04T10:53:37;62291.47;;;-146.93;16.16
21664;BME280;10993;52.510;13.456;2023-06-04T10:58:37;61318.09;;;-146.93;16.61
21664;BME280;10993;52.510;13.456;2023-06-04T11:03:38;61638.47;;;-146.93;16.58
21664;BME280;10993;52.510;13.456;2023-06-04T11:08:39;61194.44;;;-146.93;16.82
21664;BME280;10993;52.510;13.456;2023-06-04T11:13:40;60744.34;;;-146.93;17.02
21664;BME280;10993;52.510;13.456;2023-06-04T11:18:41;60815.31;;;-146.93;17.20
21664;BME280;10993;52.510;13.456;2023-06-04T11:23:42;60529.47;;;-146.93;17.19
21664;BME280;10993;52.510;13.456;2023-06-04T11:28:43;60170.72;;;-146.93;17.58
21664;BME280;10993;52.510;13.456;2023-06-04T11:33:54;59777.53;;;-146.93;17.89
21664;BME280;10993;52.510;13.456;2023-06-04T11:39:00;59591.09;;;-146.93;18.11
21664;BME280;10993;52.510;13.456;2023-06-04T11:44:03;59508.00;;;-146.93;18.31
21664;BME280;10993;52.510;13.456;2023-06-04T11:49:04;59862.66;;;-146.93;18.55
21664;BME280;10993;52.510;13.456;2023-06-04T11:54:06;60468.66;;;-146.93;18.09
21664;BME280;10993;52.510;13.456;2023-06-04T11:59:06;60896.41;;;-146.93;17.57
21664;BME280;10993;52.510;13.456;2023-06-04T12:04:11;60574.09;;;-146.93;17.68
21664;BME280;10993;52.510;13.456;2023-06-04T12:09:20;59793.75;;;-146.93;18.15
21664;BME280;10993;52.510;13.456;2023-06-04T12:14:21;59333.72;;;-146.93;18.87
21664;BME280;10993;52.510;13.456;2023-06-04T12:19:22;59023.72;;;-146.93;19.04
21664;BME280;10993;52.510;13.456;2023-06-04T12:24:24;58831.22;;;-146.93;19.38
21664;BME280;10993;52.510;13.456;2023-06-04T12:29:25;58326.78;;;-146.93;20.11
21664;BME280;10993;52.510;13.456;2023-06-04T12:34:25;58174.84;;;-146.93;19.96
21664;BME280;10993;52.510;13.456;2023-06-04T12:39:27;58085.72;;;-146.93;20.56
21664;BME280;10993;52.510;13.456;2023-06-04T12:44:27;58061.41;;;-146.93;20.63
21664;BME280;10993;52.510;13.456;2023-06-04T12:49:28;58237.66;;;-146.93;20.58
21664;BME280;10993;52.510;13.456;2023-06-04T12:54:29;58310.56;;;-146.93;20.49
21664;BME280;10993;52.510;13.456;2023-06-04T12:59:30;58286.28;;;-146.93;20.39
21664;BME280;10993;52.510;13.456;2023-06-04T13:04:31;58259.94;;;-146.93;19.96
21664;BME280;10993;52.510;13.456;2023-06-04T13:09:32;58268.03;;;-146.93;20.19
21664;BME280;10993;52.510;13.456;2023-06-04T13:14:35;57962.16;;;-146.93;20.42
21664;BME280;10993;52.510;13.456;2023-06-04T13:19:35;58199.16;;;-146.93;20.72
21664;BME280;10993;52.510;13.456;2023-06-04T13:24:37;58061.41;;;-146.93;20.45
21664;BME280;10993;52.510;13.456;2023-06-04T13:29:37;58075.59;;;-146.93;20.84
21664;BME280;10993;52.510;13.456;2023-06-04T13:34:38;58184.97;;;-146.93;20.98
21664;BME280;10993;52.510;13.456;2023-06-04T13:39:39;58189.03;;;-146.93;21.00
21664;BME280;10993;52.510;13.456;2023-06-04T13:44:40;59072.34;;;-146.93;21.02
21664;BME280;10993;52.510;13.456;2023-06-04T13:49:40;58043.19;;;-146.93;20.93
21664;BME280;10993;52.510;13.456;2023-06-04T13:54:42;58150.53;;;-146.93;20.82
21664;BME280;10993;52.510;13.456;2023-06-04T13:59:42;58170.81;;;-146.93;21.02
21664;BME280;10993;52.510;13.456;2023-06-04T14:04:43;58020.91;;;-146.93;20.85
21664;BME280;10993;52.510;13.456;2023-06-04T14:09:45;57978.38;;;-146.93;21.28
21664;BME280;10993;52.510;13.456;2023-06-04T14:14:45;58031.03;;;-146.93;21.33
21664;BME280;10993;52.510;13.456;2023-06-04T14:19:45;58095.84;;;-146.93;20.33
21664;BME280;10993;52.510;13.456;2023-06-04T14:24:47;57937.88;;;-146.93;20.83
21664;BME280;10993;52.510;13.456;2023-06-04T14:29:47;57945.97;;;-146.93;20.83
21664;BME280;10993;52.510;13.456;2023-06-04T14:34:48;57950.00;;;-146.93;20.83
21664;BME280;10993;52.510;13.456;2023-06-04T14:39:49;58000.66;;;-146.93;21.15
21664;BME280;10993;52.510;13.456;2023-06-04T14:44:50;58000.66;;;-146.93;20.98
21664;BME280;10993;52.510;13.456;2023-06-04T14:49:50;58105.97;;;-146.93;20.92
21664;BME280;10993;52.510;13.456;2023-06-04T14:54:52;58134.34;;;-146.93;20.87
21664;BME280;10993;52.510;13.456;2023-06-04T14:59:52;58039.13;;;-146.93;21.04
21664;BME280;10993;52.510;13.456;2023-06-04T15:04:53;58083.69;;;-146.93;20.93
21664;BME280;10993;52.510;13.456;2023-06-04T15:09:54;58037.13;;;-146.93;21.20
21664;BME280;10993;52.510;13.456;2023-06-04T15:14:55;58004.72;;;-146.93;21.39
21664;BME280;10993;52.510;13.456;2023-06-04T15:19:55;57996.59;;;-146.93;21.26
21664;BME280;10993;52.510;13.456;2023-06-04T15:24:57;58031.03;;;-146.93;21.06
21664;BME280;10993;52.510;13.456;2023-06-04T15:29:57;58006.72;;;-146.93;21.21
21664;BME280;10993;52.510;13.456;2023-06-04T15:34:58;58010.78;;;-146.93;21.62
21664;BME280;10993;52.510;13.456;2023-06-04T15:40:01;58039.13;;;-146.93;21.54
21664;BME280;10993;52.510;13.456;2023-06-04T15:45:03;57970.28;;;-146.93;21.35
21664;BME280;10993;52.510;13.456;2023-06-04T15:50:05;57921.66;;;-146.93;21.27
21664;BME280;10993;52.510;13.456;2023-06-04T15:55:07;57824.44;;;-146.93;21.50
21664;BME280;10993;52.510;13.456;2023-06-04T16:00:08;57887.22;;;-146.93;21.97
21664;BME280;10993;52.510;13.456;2023-06-04T16:05:09;57850.75;;;-146.93;21.87
21664;BME280;10993;52.510;13.456;2023-06-04T16:10:11;57885.19;;;-146.93;21.83
21664;BME280;10993;52.510;13.456;2023-06-04T16:15:11;57905.44;;;-146.93;22.20
21664;BME280;10993;52.510;13.456;2023-06-04T16:20:12;57830.50;;;-146.93;22.46
21664;BME280;10993;52.510;13.456;2023-06-04T16:25:13;57860.91;;;-146.93;22.47
21664;BME280;10993;52.510;13.456;2023-06-04T16:30:17;57897.34;;;-146.93;22.56
21664;BME280;10993;52.510;13.456;2023-06-04T16:35:17;57810.25;;;-146.93;22.71
21664;BME280;10993;52.510;13.456;2023-06-04T16:40:19;57680.63;;;-146.93;22.68
21664;BME280;10993;52.510;13.456;2023-06-04T16:45:20;57787.97;;;-146.93;22.74
21664;BME280;10993;52.510;13.456;2023-06-04T16:50:21;57755.56;;;-146.93;22.67
21664;BME280;10993;52.510;13.456;2023-06-04T16:55:29;57731.25;;;-146.93;22.92
21664;BME280;10993;52.510;13.456;2023-06-04T17:00:31;57544.94;;;-146.93;23.09
21664;BME280;10993;52.510;13.456;2023-06-04T17:05:31;57739.38;;;-146.93;23.27
21664;BME280;10993;52.510;13.456;2023-06-04T17:10:33;57713.03;;;-146.93;23.15
21664;BME280;10993;52.510;13.456;2023-06-04T17:15:33;57670.50;;;-146.93;23.21
21664;BME280;10993;52.510;13.456;2023-06-04T17:20:34;57680.63;;;-146.93;23.14
21664;BME280;10993;52.510;13.456;2023-06-04T17:25:35;57696.84;;;-146.93;23.66
21664;BME280;10993;52.510;13.456;2023-06-04T17:30:36;57615.81;;;-146.93;23.36
21664;BME280;10993;52.510;13.456;2023-06-04T17:35:36;57615.81;;;-146.93;23.47
21664;BME280;10993;52.510;13.456;2023-06-04T17:40:40;57617.84;;;-146.93;23.63
21664;BME280;10993;52.510;13.456;2023-06-04T17:45:40;57640.13;;;-146.93;23.82
21664;BME280;10993;52.510;13.456;2023-06-04T17:50:40;57621.91;;;-146.93;23.79
21664;BME280;10993;52.510;13.456;2023-06-04T17:55:42;57625.94;;;-146.93;23.50
21664;BME280;10993;52.510;13.456;2023-06-04T18:00:42;57528.72;;;-146.93;23.49
21664;BME280;10993;52.510;13.456;2023-06-04T18:05:43;57593.53;;;-146.93;23.48
21664;BME280;10993;52.510;13.456;2023-06-04T18:10:44;57565.19;;;-146.93;23.69
21664;BME280;10993;52.510;13.456;2023-06-04T18:15:45;57553.03;;;-146.93;23.63
21664;BME280;10993;52.510;13.456;2023-06-04T18:20:45;57557.09;;;-146.93;23.92
21664;BME280;10993;52.510;13.456;2023-06-04T18:25:47;57522.66;;;-146.93;23.80
21664;BME280;10993;52.510;13.456;2023-06-04T18:30:47;57476.06;;;-146.93;23.59
21664;BME280;10993;52.510;13.456;2023-06-04T18:35:48;57621.91;;;-146.93;24.07
21664;BME280;10993;52.510;13.456;2023-06-04T18:40:49;57451.78;;;-146.93;23.60
21664;BME280;10993;52.510;13.456;2023-06-04T18:45:50;57358.63;;;-146.93;23.69
21664;BME280;10993;52.510;13.456;2023-06-04T18:50:50;58116.13;;;-146.93;24.00
21664;BME280;10993;52.510;13.456;2023-06-04T18:55:52;57368.75;;;-146.93;23.80
21664;BME280;10993;52.510;13.456;2023-06-04T19:00:54;57397.09;;;-146.93;24.12
21664;BME280;10993;52.510;13.456;2023-06-04T19:05:54;57265.47;;;-146.93;24.46
21664;BME280;10993;52.510;13.456;2023-06-04T19:10:56;57150.03;;;-146.93;24.69
21664;BME280;10993;52.510;13.456;2023-06-04T19:15:56;57257.34;;;-146.93;24.88
21664;BME280;10993;52.510;13.456;2023-06-04T19:20:57;57210.78;;;-146.93;24.82
21664;BME280;10993;52.510;13.456;2023-06-04T19:25:58;57216.84;;;-146.93;24.86
21664;BME280;10993;52.510;13.456;2023-06-04T19:30:59;58373.38;;;-146.93;25.16
21664;BME280;10993;52.510;13.456;2023-06-04T19:36:00;57188.50;;;-146.93;25.36
21664;BME280;10993;52.510;13.456;2023-06-04T19:41:01;57093.31;;;-146.93;25.82
21664;BME280;10993;52.510;13.456;2023-06-04T19:46:02;57075.09;;;-146.93;26.27
21664;BME280;10993;52.510;13.456;2023-06-04T19:51:03;57139.91;;;-146.93;26.10
21664;BME280;10993;52.510;13.456;2023-06-04T19:56:04;57103.44;;;-146.93;26.33
21664;BME280;10993;52.510;13.456;2023-06-04T20:01:05;57107.50;;;-146.93;26.63
21664;BME280;10993;52.510;13.456;2023-06-04T20:06:05;57077.13;;;-146.93;26.94
21664;BME280;10993;52.510;13.456;2023-06-04T20:11:07;57010.31;;;-146.93;27.15
21664;BME280;10993;52.510;13.456;2023-06-04T20:16:07;56986.00;;;-146.93;27.50
21664;BME280;10993;52.510;13.456;2023-06-04T20:21:08;57012.31;;;-146.93;27.75
21664;BME280;10993;52.510;13.456;2023-06-04T20:26:10;57020.44;;;-146.93;28.04
21664;BME280;10993;52.510;13.456;2023-06-04T20:31:10;56870.59;;;-146.93;28.27
21664;BME280;10993;52.510;13.456;2023-06-04T20:36:10;56884.75;;;-146.93;28.64
21664;BME280;10993;52.510;13.456;2023-06-04T20:41:12;56828.06;;;-146.93;28.66
21664;BME280;10993;52.510;13.456;2023-06-04T20:46:13;56884.75;;;-146.93;28.68
21664;BME280;10993;52.510;13.456;2023-06-04T20:51:14;56876.66;;;-146.93;28.94
21664;BME280;10993;52.510;13.456;2023-06-04T20:56:15;56907.03;;;-146.93;29.09
21664;BME280;10993;52.510;13.456;2023-06-04T21:01:16;56860.47;;;-146.93;28.91
21664;BME280;10993;52.510;13.456;2023-06-04T21:06:16;56852.34;;;-146.93;29.21
21664;BME280;10993;52.510;13.456;2023-06-04T21:11:18;56836.16;;;-146.93;29.06
21664;BME280;10993;52.510;13.456;2023-06-04T21:16:18;56848.31;;;-146.93;29.34
21664;BME280;10993;52.510;13.456;2023-06-04T21:21:19;56848.31;;;-146.93;29.24
21664;BME280;10993;52.510;13.456;2023-06-04T21:26:20;56832.13;;;-146.93;29.24
21664;BME280;10993;52.510;13.456;2023-06-04T21:31:21;56803.75;;;-146.93;29.35
21664;BME280;10993;52.510;13.456;2023-06-04T21:36:21;56749.09;;;-146.93;29.46
21664;BME280;10993;52.510;13.456;2023-06-04T21:41:23;57000.19;;;-146.93;29.26
21664;BME280;10993;52.510;13.456;2023-06-04T21:46:23;56815.91;;;-146.93;29.42
21664;BME280;10993;52.510;13.456;2023-06-04T21:51:24;56759.22;;;-146.93;29.50
21664;BME280;10993;52.510;13.456;2023-06-04T21:56:26;56765.28;;;-146.93;29.42
21664;BME280;10993;52.510;13.456;2023-06-04T22:01:26;56773.38;;;-146.93;29.53
21664;BME280;10993;52.510;13.456;2023-06-04T22:06:27;56751.13;;;-146.93;29.65
21664;BME280;10993;52.510;13.456;2023-06-04T22:11:28;56771.38;;;-146.93;29.85
21664;BME280;10993;52.510;13.456;2023-06-04T22:16:29;56757.19;;;-146.93;30.10
21664;BME280;10993;52.510;13.456;2023-06-04T22:21:30;56736.94;;;-146.93;30.24
21664;BME280;10993;52.510;13.456;2023-06-04T22:26:32;56718.72;;;-146.93;30.46
21664;BME280;10993;52.510;13.456;2023-06-04T22:31:32;56716.69;;;-146.93;30.67
21664;BME280;10993;52.510;13.456;2023-06-04T22:36:32;56710.63;;;-146.93;30.64
21664;BME280;10993;52.510;13.456;2023-06-04T22:41:34;56645.81;;;-146.93;30.60
21664;BME280;10993;52.510;13.456;2023-06-04T22:46:34;56694.41;;;-146.93;31.05
21664;BME280;10993;52.510;13.456;2023-06-04T22:51:35;56686.31;;;-146.93;31.46
21664;BME280;10993;52.510;13.456;2023-06-04T22:56:36;56653.94;;;-146.93;31.59
21664;BME280;10993;52.510;13.456;2023-06-04T23:01:37;56611.41;;;-146.93;31.85
21664;BME280;10993;52.510;13.456;2023-06-04T23:06:37;56631.66;;;-146.93;31.87
21664;BME280;10993;52.510;13.456;2023-06-04T23:11:39;56441.34;;;-146.93;31.76
21664;BME280;10993;52.510;13.456;2023-06-04T23:16:40;56613.44;;;-146.93;32.01
21664;BME280;10993;52.510;13.456;2023-06-04T23:21:41;57170.28;;;-146.93;32.17
21664;BME280;10993;52.510;13.456;2023-06-04T23:26:43;56554.72;;;-146.93;32.57
21664;BME280;10993;52.510;13.456;2023-06-04T23:31:43;56485.88;;;-146.93;32.65
21664;BME280;10993;52.510;13.456;2023-06-04T23:36:44;56591.16;;;-146.93;32.82
21664;BME280;10993;52.510;13.456;2023-06-04T23:41:45;56552.69;;;-146.93;32.75
21664;BME280;10993;52.510;13.456;2023-06-04T23:46:46;56564.84;;;-146.93;33.22
21664;BME280;10993;52.510;13.456;2023-06-04T23:51:46;56281.41;;;-146.93;33.04
21664;BME280;10993;52.510;13.456;2023-06-04T23:56:48;56581.03;;;-146.93;32.98
